createdAt,value
2023-02-09T00:00:17.477Z,96086.53
2023-02-09T00:02:44.339Z,96091.03
2023-02-09T00:05:11.637Z,96094.78
2023-02-09T00:07:38.259Z,96091.91
2023-02-09T00:10:05.951Z,96092.44
2023-02-09T00:12:51.341Z,96078.56
2023-02-09T00:15:18.039Z,96079.53
2023-02-09T00:17:44.754Z,96089.03
2023-02-09T00:20:11.609Z,96069.50
2023-02-09T00:22:38.175Z,96078.72
2023-02-09T00:25:05.042Z,96078.16
2023-02-09T00:27:35.401Z,96075.91
2023-02-09T00:30:04.356Z,96079.44
2023-02-09T00:32:33.128Z,96074.72
2023-02-09T00:34:59.951Z,96074.66
2023-02-09T00:37:26.634Z,96068.81
2023-02-09T00:39:53.278Z,96075.38
2023-02-09T00:42:19.896Z,96073.44
2023-02-09T00:44:46.545Z,96063.41
2023-02-09T00:47:13.212Z,96064.28
2023-02-09T00:49:40.256Z,96066.25
2023-02-09T00:52:08.922Z,96064.38
2023-02-09T00:54:36.577Z,96061.56
2023-02-09T00:57:06.126Z,96050.16
2023-02-09T00:59:34.754Z,96052.94
2023-02-09T01:02:02.026Z,96047.53
2023-02-09T01:04:28.741Z,96036.25
2023-02-09T01:06:55.440Z,96037.31
2023-02-09T01:09:22.182Z,96036.16
2023-02-09T01:11:48.933Z,96041.81
2023-02-09T01:14:16.164Z,96036.09
2023-02-09T01:16:43.156Z,96035.06
2023-02-09T01:19:11.854Z,96033.06
2023-02-09T01:21:38.577Z,96026.44
2023-02-09T01:24:05.492Z,96026.34
2023-02-09T01:26:32.412Z,96027.53
2023-02-09T01:28:58.993Z,96016.28
2023-02-09T01:31:31.801Z,96014.50
2023-02-09T01:34:00.962Z,96013.38
2023-02-09T01:36:28.934Z,96020.59
2023-02-09T01:38:57.762Z,96018.50
2023-02-09T01:41:25.097Z,96022.16
2023-02-09T01:43:53.544Z,96021.44
2023-02-09T01:46:22.164Z,96019.41
2023-02-09T01:48:53.518Z,96019.03
2023-02-09T01:51:20.600Z,96007.63
2023-02-09T01:53:47.955Z,96009.13
2023-02-09T01:56:23.507Z,96008.69
2023-02-09T01:58:50.373Z,96006.53
2023-02-09T02:01:17.994Z,96010.19
2023-02-09T02:03:45.551Z,96004.97
2023-02-09T02:06:15.588Z,96010.25
2023-02-09T02:08:48.870Z,96003.84
2023-02-09T02:11:16.789Z,96009.97
2023-02-09T02:13:43.645Z,96005.03
2023-02-09T02:16:39.413Z,95995.00
2023-02-09T02:19:34.077Z,95997.72
2023-02-09T02:22:22.354Z,95998.50
2023-02-09T02:25:13.833Z,95996.94
2023-02-09T02:27:59.273Z,95997.91
2023-02-09T02:30:55.532Z,95999.94
2023-02-09T02:33:37.574Z,95993.03
2023-02-09T02:36:16.903Z,95996.00
2023-02-09T02:39:07.000Z,95992.97
2023-02-09T02:42:18.311Z,95988.66
2023-02-09T02:44:56.161Z,95980.06
2023-02-09T02:47:24.759Z,95982.13
2023-02-09T02:49:56.994Z,95978.63
2023-02-09T02:52:23.748Z,95977.91
2023-02-09T02:55:02.660Z,95972.69
2023-02-09T02:57:33.382Z,95973.13
2023-02-09T03:00:10.061Z,95973.84
2023-02-09T03:02:59.162Z,95977.50
2023-02-09T03:05:28.071Z,95975.78
2023-02-09T03:07:54.729Z,95977.97
2023-02-09T03:10:39.188Z,95973.59
2023-02-09T03:13:24.281Z,95968.09
2023-02-09T03:16:14.076Z,95977.63
2023-02-09T03:18:59.509Z,95981.19
2023-02-09T03:21:43.659Z,95980.22
2023-02-09T03:24:18.909Z,95979.56
2023-02-09T03:26:51.355Z,95968.47
2023-02-09T03:29:20.103Z,95967.78
2023-02-09T03:31:49.078Z,95963.91
2023-02-09T03:34:16.550Z,95973.34
2023-02-09T03:36:44.862Z,95970.09
2023-02-09T03:39:11.487Z,95970.69
2023-02-09T03:41:38.234Z,95966.72
2023-02-09T03:44:23.719Z,95965.44
2023-02-09T03:46:50.430Z,95955.38
2023-02-09T03:49:17.139Z,95966.69
2023-02-09T03:51:43.760Z,95963.88
2023-02-09T03:54:10.459Z,95948.91
2023-02-09T03:56:37.637Z,95962.88
2023-02-09T03:59:07.224Z,95958.31
2023-02-09T04:01:33.882Z,95960.84
2023-02-09T04:04:02.286Z,95965.56
2023-02-09T04:06:31.864Z,95960.03
2023-02-09T04:09:00.082Z,95958.66
2023-02-09T04:11:28.242Z,95966.09
2023-02-09T04:13:55.258Z,95955.84
2023-02-09T04:16:22.111Z,95968.50
2023-02-09T04:18:48.761Z,95971.56
2023-02-09T04:21:15.407Z,95973.75
2023-02-09T04:23:42.090Z,95966.56
2023-02-09T04:26:08.949Z,95971.91
2023-02-09T04:28:35.745Z,95963.66
2023-02-09T04:31:02.471Z,95957.25
2023-02-09T04:33:29.378Z,95963.34
2023-02-09T04:35:56.207Z,95953.75
2023-02-09T04:38:23.454Z,95964.56
2023-02-09T04:40:53.436Z,95964.16
2023-02-09T04:43:20.781Z,95966.59
2023-02-09T04:45:47.546Z,95969.38
2023-02-09T04:48:17.996Z,95960.50
2023-02-09T04:50:45.403Z,95955.69
2023-02-09T04:53:13.153Z,95956.19
2023-02-09T04:55:41.230Z,95962.22
2023-02-09T04:58:27.811Z,95960.84
2023-02-09T05:00:56.036Z,95964.84
2023-02-09T05:03:24.661Z,95967.78
2023-02-09T05:05:55.745Z,95959.81
2023-02-09T05:08:23.130Z,95964.03
2023-02-09T05:10:54.270Z,95962.53
2023-02-09T05:13:21.980Z,95967.38
2023-02-09T05:15:48.731Z,95968.16
2023-02-09T05:18:16.404Z,95971.00
2023-02-09T05:20:45.308Z,95964.53
2023-02-09T05:23:12.738Z,95968.91
2023-02-09T05:25:39.444Z,95966.50
2023-02-09T05:28:06.395Z,95959.81
2023-02-09T05:30:34.963Z,95972.06
2023-02-09T05:33:03.240Z,95966.91
2023-02-09T05:35:30.011Z,95971.72
2023-02-09T05:37:56.556Z,95970.16
2023-02-09T05:40:23.166Z,95970.94
2023-02-09T05:42:49.759Z,95972.47
2023-02-09T05:45:16.478Z,95977.59
2023-02-09T05:47:43.074Z,95988.66
2023-02-09T05:50:10.068Z,95984.44
2023-02-09T05:52:36.738Z,95979.69
2023-02-09T05:55:04.367Z,95986.97
2023-02-09T05:57:31.022Z,95985.16
2023-02-09T05:59:57.618Z,95981.41
2023-02-09T06:02:24.303Z,95980.19
2023-02-09T06:04:51.017Z,95977.19
2023-02-09T06:07:17.575Z,95980.84
2023-02-09T06:09:44.185Z,95974.59
2023-02-09T06:12:10.839Z,95978.22
2023-02-09T06:14:40.201Z,95975.72
2023-02-09T06:17:06.852Z,95963.88
2023-02-09T06:19:33.541Z,95965.22
2023-02-09T06:22:00.174Z,95959.13
2023-02-09T06:24:26.874Z,95965.16
2023-02-09T06:26:53.487Z,95959.84
2023-02-09T06:29:20.058Z,95962.88
2023-02-09T06:31:46.863Z,95962.34
2023-02-09T06:34:13.789Z,95965.16
2023-02-09T06:36:40.565Z,95962.53
2023-02-09T06:39:09.313Z,95962.53
2023-02-09T06:41:36.618Z,95959.00
2023-02-09T06:44:03.982Z,95956.59
2023-02-09T06:46:31.812Z,95951.09
2023-02-09T06:48:59.596Z,95957.59
2023-02-09T06:51:26.674Z,95951.59
2023-02-09T06:53:53.679Z,95949.19
2023-02-09T06:56:20.767Z,95947.34
2023-02-09T06:58:47.576Z,95943.16
2023-02-09T07:01:18.312Z,95948.94
2023-02-09T07:03:45.259Z,95943.22
2023-02-09T07:06:18.574Z,95943.50
2023-02-09T07:08:46.604Z,95946.81
2023-02-09T07:11:16.103Z,95944.03
2023-02-09T07:13:43.250Z,95949.50
2023-02-09T07:16:11.244Z,95953.31
2023-02-09T07:18:39.615Z,95947.34
2023-02-09T07:21:15.595Z,95951.09
2023-02-09T07:23:42.309Z,95946.28
2023-02-09T07:26:13.332Z,95951.31
2023-02-09T07:28:39.960Z,95944.25
2023-02-09T07:31:08.867Z,95949.19
2023-02-09T07:33:36.247Z,95952.66
2023-02-09T07:36:08.293Z,95949.75
2023-02-09T07:38:35.624Z,95942.72
2023-02-09T07:41:04.338Z,95949.19
2023-02-09T07:43:31.832Z,95945.00
2023-02-09T07:46:03.157Z,95937.31
2023-02-09T07:48:30.502Z,95937.69
2023-02-09T07:50:57.389Z,95934.66
2023-02-09T07:53:24.538Z,95932.16
2023-02-09T07:55:51.219Z,95928.38
2023-02-09T07:58:19.994Z,95933.75
2023-02-09T08:00:50.932Z,95936.00
2023-02-09T08:03:20.387Z,95937.75
2023-02-09T08:05:55.863Z,95930.41
2023-02-09T08:08:22.502Z,95936.91
2023-02-09T08:10:50.064Z,95925.50
2023-02-09T08:13:16.881Z,95925.34
2023-02-09T08:15:45.904Z,95936.88
2023-02-09T08:18:16.939Z,95929.97
2023-02-09T08:20:48.659Z,95934.75
2023-02-09T08:23:30.199Z,95926.78
2023-02-09T08:26:00.329Z,95942.53
2023-02-09T08:28:41.629Z,95939.19
2023-02-09T08:31:08.717Z,95933.91
2023-02-09T08:33:35.423Z,95922.66
2023-02-09T08:36:02.078Z,95921.75
2023-02-09T08:38:28.732Z,95914.78
2023-02-09T08:40:55.347Z,95919.00
2023-02-09T08:43:21.994Z,95922.16
2023-02-09T08:45:49.124Z,95920.94
2023-02-09T08:48:16.018Z,95925.72
2023-02-09T08:50:42.682Z,95925.06
2023-02-09T08:53:09.366Z,95922.72
2023-02-09T08:55:38.231Z,95933.16
2023-02-09T08:58:05.207Z,95928.44
2023-02-09T09:00:32.336Z,95927.44
2023-02-09T09:02:58.942Z,95938.72
2023-02-09T09:05:25.639Z,95939.00
2023-02-09T09:07:52.251Z,95938.94
2023-02-09T09:10:18.990Z,95931.81
2023-02-09T09:12:45.674Z,95929.94
2023-02-09T09:15:12.357Z,95931.09
2023-02-09T09:17:38.959Z,95932.41
2023-02-09T09:20:07.035Z,95937.84
2023-02-09T09:22:33.851Z,95933.09
2023-02-09T09:25:00.565Z,95939.28
2023-02-09T09:27:28.317Z,95937.47
2023-02-09T09:29:55.819Z,95927.94
2023-02-09T09:32:25.130Z,95924.69
2023-02-09T09:34:56.078Z,95927.06
2023-02-09T09:37:23.629Z,95941.94
2023-02-09T09:39:51.189Z,95923.31
2023-02-09T09:42:51.473Z,95927.00
2023-02-09T09:45:21.323Z,95926.72
2023-02-09T09:47:48.384Z,95923.69
2023-02-09T09:50:24.000Z,95919.13
2023-02-09T09:52:57.194Z,95918.03
2023-02-09T09:55:27.198Z,95915.66
2023-02-09T09:57:55.142Z,95917.66
2023-02-09T10:00:26.370Z,95908.69
2023-02-09T10:02:53.071Z,95905.25
2023-02-09T10:05:35.654Z,95915.00
2023-02-09T10:08:22.352Z,95908.03
2023-02-09T10:11:07.559Z,95901.59
2023-02-09T10:13:38.864Z,95904.00
2023-02-09T10:16:26.726Z,95898.91
2023-02-09T10:18:56.223Z,95903.34
2023-02-09T10:21:28.990Z,95891.97
2023-02-09T10:24:01.556Z,95895.66
2023-02-09T10:26:33.343Z,95894.88
2023-02-09T10:29:21.222Z,95893.47
2023-02-09T10:31:54.991Z,95884.88
2023-02-09T10:34:31.416Z,95887.94
2023-02-09T10:37:21.748Z,95889.72
2023-02-09T10:40:17.531Z,95893.69
2023-02-09T10:43:04.312Z,95883.53
2023-02-09T10:45:38.826Z,95881.75
2023-02-09T10:48:11.297Z,95879.53
2023-02-09T10:51:29.561Z,95883.28
2023-02-09T10:53:59.048Z,95874.78
2023-02-09T10:56:33.711Z,95869.47
2023-02-09T10:59:04.263Z,95859.88
2023-02-09T11:01:42.300Z,95864.91
2023-02-09T11:04:39.616Z,95869.44
2023-02-09T11:07:14.976Z,95864.22
2023-02-09T11:09:50.895Z,95873.84
2023-02-09T11:12:20.489Z,95858.53
2023-02-09T11:14:47.184Z,95855.25
2023-02-09T11:17:37.441Z,95850.34
2023-02-09T11:20:23.370Z,95854.53
2023-02-09T11:22:53.071Z,95853.19
2023-02-09T11:25:32.717Z,95843.50
2023-02-09T11:28:11.151Z,95843.22
2023-02-09T11:30:40.739Z,95841.13
2023-02-09T11:33:25.588Z,95845.59
2023-02-09T11:36:17.293Z,95838.53
2023-02-09T11:39:10.276Z,95838.59
2023-02-09T11:42:02.469Z,95832.56
2023-02-09T11:45:08.907Z,95827.31
2023-02-09T11:47:50.908Z,95817.66
2023-02-09T11:50:27.101Z,95821.28
2023-02-09T11:52:59.491Z,95809.91
2023-02-09T11:55:38.450Z,95810.13
2023-02-09T11:58:27.849Z,95814.41
2023-02-09T12:01:14.375Z,95810.38
2023-02-09T12:03:50.014Z,95809.16
2023-02-09T12:06:22.923Z,95797.06
2023-02-09T12:09:01.967Z,95806.66
2023-02-09T12:11:31.505Z,95800.50
2023-02-09T12:14:13.129Z,95796.03
2023-02-09T12:16:44.108Z,95802.22
2023-02-09T12:19:28.206Z,95800.50
2023-02-09T12:21:54.865Z,95790.97
2023-02-09T12:24:39.279Z,95788.94
2023-02-09T12:27:26.036Z,95785.91
2023-02-09T12:29:52.764Z,95787.47
2023-02-09T12:32:26.492Z,95783.31
2023-02-09T12:34:55.355Z,95772.41
2023-02-09T12:37:28.890Z,95772.34
2023-02-09T12:40:03.578Z,95756.59
2023-02-09T12:42:39.328Z,95778.47
2023-02-09T12:45:30.797Z,95765.19
2023-02-09T12:48:11.833Z,95765.28
2023-02-09T12:50:44.188Z,95752.56
2023-02-09T12:53:22.875Z,95758.59
2023-02-09T12:56:11.381Z,95762.25
2023-02-09T12:58:43.927Z,95756.34
2023-02-09T13:01:16.183Z,95772.41
2023-02-09T13:03:53.631Z,95757.28
2023-02-09T13:06:31.516Z,95760.91
2023-02-09T13:09:03.969Z,95755.66
2023-02-09T13:11:46.668Z,95748.88
2023-02-09T13:14:15.007Z,95745.56
2023-02-09T13:17:09.376Z,95743.22
2023-02-09T13:19:48.397Z,95748.91
2023-02-09T13:22:21.049Z,95746.19
2023-02-09T13:24:55.020Z,95746.78
2023-02-09T13:27:24.297Z,95739.94
2023-02-09T13:29:56.424Z,95747.47
2023-02-09T13:32:33.740Z,95741.63
2023-02-09T13:35:24.544Z,95750.16
2023-02-09T13:38:12.806Z,95754.84
2023-02-09T13:40:47.267Z,95745.44
2023-02-09T13:43:24.338Z,95740.03
2023-02-09T13:45:53.727Z,95745.50
2023-02-09T13:48:28.390Z,95738.31
2023-02-09T13:50:57.446Z,95737.94
2023-02-09T13:53:25.939Z,95735.81
2023-02-09T13:55:54.728Z,95737.56
2023-02-09T13:58:33.035Z,95736.75
2023-02-09T14:01:22.674Z,95730.06
2023-02-09T14:04:14.539Z,95729.06
2023-02-09T14:06:58.375Z,95735.31
2023-02-09T14:09:30.096Z,95733.72
2023-02-09T14:12:08.178Z,95736.19
2023-02-09T14:15:00.449Z,95723.38
2023-02-09T14:17:35.314Z,95727.06
2023-02-09T14:20:05.741Z,95724.94
2023-02-09T14:22:38.177Z,95732.94
2023-02-09T14:25:14.097Z,95731.19
2023-02-09T14:27:41.816Z,95725.88
2023-02-09T14:30:32.188Z,95727.88
2023-02-09T14:33:00.995Z,95727.69
2023-02-09T14:35:29.100Z,95741.28
2023-02-09T14:37:58.813Z,95733.41
2023-02-09T14:40:37.377Z,95722.31
2023-02-09T14:43:03.994Z,95715.38
2023-02-09T14:45:43.493Z,95725.06
2023-02-09T14:48:21.684Z,95727.72
2023-02-09T14:50:50.815Z,95743.88
2023-02-09T14:53:18.275Z,95755.25
2023-02-09T14:55:45.357Z,95737.22
2023-02-09T14:58:23.438Z,95751.22
2023-02-09T15:00:52.293Z,95747.03
2023-02-09T15:03:19.116Z,95749.09
2023-02-09T15:05:48.173Z,95749.19
2023-02-09T15:08:20.028Z,95752.13
2023-02-09T15:11:26.775Z,95752.56
2023-02-09T15:13:57.630Z,95764.44
2023-02-09T15:16:24.490Z,95760.06
2023-02-09T15:18:51.182Z,95757.41
2023-02-09T15:21:17.937Z,95763.56
2023-02-09T15:23:44.623Z,95769.34
2023-02-09T15:26:19.128Z,95772.41
2023-02-09T15:28:45.981Z,95781.50
2023-02-09T15:31:15.966Z,95784.13
2023-02-09T15:33:43.224Z,95787.63
2023-02-09T15:36:18.676Z,95794.63
2023-02-09T15:38:45.484Z,95796.41
2023-02-09T15:41:30.724Z,95801.16
2023-02-09T15:44:16.186Z,95802.66
2023-02-09T15:47:04.722Z,95796.78
2023-02-09T15:49:31.973Z,95787.47
2023-02-09T15:51:58.663Z,95788.38
2023-02-09T15:54:31.887Z,95793.16
2023-02-09T15:56:59.025Z,95791.38
2023-02-09T15:59:25.645Z,95788.94
2023-02-09T16:01:52.435Z,95788.31
2023-02-09T16:04:19.518Z,95805.84
2023-02-09T16:06:52.425Z,95801.00
2023-02-09T16:09:26.681Z,95807.38
2023-02-09T16:11:53.507Z,95808.22
2023-02-09T16:14:22.235Z,95811.69
2023-02-09T16:16:49.214Z,95815.19
2023-02-09T16:19:17.027Z,95812.50
2023-02-09T16:21:50.812Z,95806.59
2023-02-09T16:24:41.785Z,95805.38
2023-02-09T16:27:16.360Z,95821.53
2023-02-09T16:29:43.314Z,95813.97
2023-02-09T16:32:24.029Z,95822.13
2023-02-09T16:34:51.607Z,95817.97
2023-02-09T16:37:26.978Z,95823.34
2023-02-09T16:39:54.885Z,95831.69
2023-02-09T16:42:21.638Z,95827.69
2023-02-09T16:44:48.260Z,95826.38
2023-02-09T16:47:26.099Z,95816.06
2023-02-09T16:50:12.986Z,95822.28
2023-02-09T16:52:43.403Z,95822.16
2023-02-09T16:55:34.309Z,95824.91
2023-02-09T16:58:03.991Z,95832.84
2023-02-09T17:00:35.976Z,95821.53
2023-02-09T17:03:29.195Z,95822.91
2023-02-09T17:05:57.343Z,95816.53
2023-02-09T17:08:27.444Z,95811.34
2023-02-09T17:10:56.233Z,95809.47
2023-02-09T17:13:23.242Z,95817.44
2023-02-09T17:15:55.202Z,95820.22
2023-02-09T17:18:38.858Z,95823.63
2023-02-09T17:21:16.613Z,95827.84
2023-02-09T17:23:44.011Z,95825.94
2023-02-09T17:26:11.943Z,95827.06
2023-02-09T17:28:38.675Z,95822.44
2023-02-09T17:31:17.920Z,95823.41
2023-02-09T17:33:47.759Z,95826.09
2023-02-09T17:36:30.717Z,95823.56
2023-02-09T17:38:59.683Z,95817.03
2023-02-09T17:41:34.014Z,95820.53
2023-02-09T17:44:31.607Z,95819.75
2023-02-09T17:47:05.887Z,95821.66
2023-02-09T17:49:33.276Z,95824.56
2023-02-09T17:51:59.873Z,95816.06
2023-02-09T17:54:27.876Z,95818.94
2023-02-09T17:56:54.565Z,95821.31
2023-02-09T17:59:21.391Z,95818.13
2023-02-09T18:01:51.594Z,95818.00
2023-02-09T18:04:21.626Z,95811.28
2023-02-09T18:06:52.050Z,95819.91
2023-02-09T18:09:21.874Z,95820.69
2023-02-09T18:11:52.649Z,95822.97
2023-02-09T18:14:21.758Z,95818.28
2023-02-09T18:16:49.055Z,95813.97
2023-02-09T18:19:16.900Z,95820.03
2023-02-09T18:21:51.618Z,95820.31
2023-02-09T18:24:20.215Z,95819.13
2023-02-09T18:26:49.594Z,95817.09
2023-02-09T18:29:16.433Z,95819.59
2023-02-09T18:31:43.104Z,95819.44
2023-02-09T18:34:10.132Z,95814.09
2023-02-09T18:36:36.799Z,95821.31
2023-02-09T18:39:03.632Z,95822.28
2023-02-09T18:41:30.358Z,95816.13
2023-02-09T18:43:56.986Z,95816.44
2023-02-09T18:46:27.182Z,95816.91
2023-02-09T18:48:54.760Z,95813.25
2023-02-09T18:51:22.184Z,95827.09
2023-02-09T18:53:50.342Z,95830.59
2023-02-09T18:56:19.502Z,95825.94
2023-02-09T18:58:46.599Z,95819.16
2023-02-09T19:01:13.395Z,95828.66
2023-02-09T19:03:39.987Z,95828.72
2023-02-09T19:06:11.250Z,95831.63
2023-02-09T19:08:40.600Z,95829.66
2023-02-09T19:11:09.264Z,95836.06
2023-02-09T19:13:36.705Z,95827.44
2023-02-09T19:16:03.457Z,95833.03
2023-02-09T19:18:30.293Z,95828.22
2023-02-09T19:20:57.093Z,95831.03
2023-02-09T19:23:24.715Z,95835.78
2023-02-09T19:26:03.057Z,95832.66
2023-02-09T19:28:29.893Z,95833.78
2023-02-09T19:30:57.290Z,95829.19
2023-02-09T19:33:24.005Z,95828.19
2023-02-09T19:36:00.190Z,95833.13
2023-02-09T19:38:27.184Z,95826.63
2023-02-09T19:41:08.517Z,95831.75
2023-02-09T19:43:36.288Z,95830.81
2023-02-09T19:46:04.607Z,95834.63
2023-02-09T19:48:31.875Z,95836.25
2023-02-09T19:50:59.344Z,95822.09
2023-02-09T19:53:26.977Z,95829.66
2023-02-09T19:55:54.369Z,95829.38
2023-02-09T19:58:22.090Z,95831.31
2023-02-09T20:00:50.436Z,95840.84
2023-02-09T20:03:17.810Z,95849.03
2023-02-09T20:05:45.343Z,95849.34
2023-02-09T20:08:15.820Z,95844.44
2023-02-09T20:10:44.174Z,95837.03
2023-02-09T20:13:13.083Z,95844.31
2023-02-09T20:15:43.917Z,95846.03
2023-02-09T20:18:12.647Z,95848.94
2023-02-09T20:20:42.419Z,95843.63
2023-02-09T20:23:10.189Z,95844.09
2023-02-09T20:25:40.803Z,95851.44
2023-02-09T20:28:07.678Z,95842.16
2023-02-09T20:30:34.592Z,95851.28
2023-02-09T20:33:04.190Z,95848.22
2023-02-09T20:35:30.847Z,95844.22
2023-02-09T20:37:57.532Z,95846.19
2023-02-09T20:40:24.122Z,95850.31
2023-02-09T20:43:09.282Z,95844.66
2023-02-09T20:45:54.180Z,95844.63
2023-02-09T20:48:20.938Z,95840.13
2023-02-09T20:50:47.889Z,95842.03
2023-02-09T20:53:14.752Z,95840.13
2023-02-09T20:55:42.716Z,95842.88
2023-02-09T20:58:11.905Z,95836.59
2023-02-09T21:00:39.055Z,95832.28
2023-02-09T21:03:07.378Z,95842.63
2023-02-09T21:05:34.904Z,95837.94
2023-02-09T21:08:04.417Z,95828.16
2023-02-09T21:10:35.855Z,95829.84
2023-02-09T21:13:03.950Z,95831.34
2023-02-09T21:15:30.659Z,95822.91
2023-02-09T21:17:57.370Z,95817.56
2023-02-09T21:20:24.153Z,95816.28
2023-02-09T21:22:51.088Z,95816.22
2023-02-09T21:25:19.326Z,95814.38
2023-02-09T21:27:46.100Z,95817.53
2023-02-09T21:30:13.781Z,95833.47
2023-02-09T21:32:40.391Z,95831.75
2023-02-09T21:35:10.398Z,95824.13
2023-02-09T21:37:42.946Z,95815.03
2023-02-09T21:40:12.237Z,95826.31
2023-02-09T21:42:39.542Z,95824.72
2023-02-09T21:45:07.951Z,95835.69
2023-02-09T21:47:37.678Z,95829.50
2023-02-09T21:50:09.363Z,95825.44
2023-02-09T21:52:36.132Z,95829.28
2023-02-09T21:55:03.007Z,95828.63
2023-02-09T21:57:29.817Z,95827.69
2023-02-09T21:59:58.958Z,95836.22
2023-02-09T22:02:27.461Z,95832.22
2023-02-09T22:04:54.295Z,95829.63
2023-02-09T22:07:21.017Z,95832.00
2023-02-09T22:09:47.566Z,95834.25
2023-02-09T22:12:14.386Z,95839.19
2023-02-09T22:14:41.107Z,95833.75
2023-02-09T22:17:07.758Z,95831.75
2023-02-09T22:19:34.785Z,95836.47
2023-02-09T22:22:01.666Z,95831.75
2023-02-09T22:24:30.042Z,95833.13
2023-02-09T22:26:56.717Z,95840.44
2023-02-09T22:29:23.293Z,95833.09
2023-02-09T22:31:49.963Z,95831.25
2023-02-09T22:34:16.567Z,95837.53
2023-02-09T22:36:43.261Z,95831.78
2023-02-09T22:39:10.100Z,95829.81
2023-02-09T22:41:36.825Z,95823.00
2023-02-09T22:44:07.993Z,95826.56
2023-02-09T22:46:40.519Z,95827.75
2023-02-09T22:49:12.140Z,95828.28
2023-02-09T22:51:39.089Z,95827.88
2023-02-09T22:54:06.441Z,95835.97
2023-02-09T22:56:33.682Z,95829.50
2023-02-09T22:59:01.012Z,95833.16
2023-02-09T23:01:29.017Z,95839.97
2023-02-09T23:03:55.987Z,95832.56
2023-02-09T23:06:27.097Z,95836.28
2023-02-09T23:08:55.499Z,95831.53
2023-02-09T23:11:22.817Z,95837.59
2023-02-09T23:13:54.951Z,95828.13
2023-02-09T23:16:31.418Z,95836.97
2023-02-09T23:19:01.082Z,95834.59
2023-02-09T23:21:32.521Z,95838.78
2023-02-09T23:23:59.428Z,95833.91
2023-02-09T23:26:27.173Z,95836.03
2023-02-09T23:28:59.275Z,95843.03
2023-02-09T23:31:27.015Z,95842.56
2023-02-09T23:33:54.343Z,95852.22
2023-02-09T23:36:25.410Z,95845.59
2023-02-09T23:38:56.805Z,95847.91
2023-02-09T23:41:24.208Z,95842.88
2023-02-09T23:43:51.336Z,95848.59
2023-02-09T23:46:20.637Z,95842.97
2023-02-09T23:48:47.989Z,95843.06
2023-02-09T23:51:20.580Z,95848.53
2023-02-09T23:53:48.027Z,95841.78
2023-02-09T23:56:16.429Z,95835.06
2023-02-09T23:58:46.508Z,95837.84
